CPA799 WIII-RPLL
Flight info
| Callsign | CPA799 |
|---|---|
| Flight time | 3h 23m |
| Altitude | 41000 |
| Route | AMBOY P648 VJN M646 TOKON DCT LUBAN LUBAN3R |
| Aircraft | A359/H-SDE2E3GHIJ3J4J5LM1ORWXY/LB1D1 |
Departure
| Time | 2026-05-04 11:57 |
|---|---|
| Airport | Soekarno-Hatta International Airport (WIII) |
Arrival
| Time | 2026-05-04 15:20 |
|---|---|
| Airport | Ninoy Aquino International Airport (RPLL) |
| Time | Latitude | Longitude | Altitude | Speed | Heading |
|---|---|---|---|---|---|
| 2026-05-04 11:28 | -6.11755 | 106.66454 | 43 ft | 0 kts | 157° |
| 2026-05-04 11:33 | -6.11754 | 106.66454 | 43 ft | 0 kts | 157° |
| 2026-05-04 11:47 | -6.11748 | 106.66452 | 44 ft | 4 kts | 157° |
| 2026-05-04 11:47 | -6.11724 | 106.66441 | 40 ft | 4 kts | 155° |
| 2026-05-04 11:47 | -6.11707 | 106.66433 | 41 ft | 4 kts | 155° |
| 2026-05-04 11:47 | -6.11677 | 106.66419 | 41 ft | 4 kts | 160° |
| 2026-05-04 11:48 | -6.11653 | 106.66415 | 41 ft | 4 kts | 203° |
| 2026-05-04 11:48 | -6.11638 | 106.66432 | 42 ft | 4 kts | 261° |
| 2026-05-04 11:48 | -6.11636 | 106.66459 | 42 ft | 4 kts | 261° |
| 2026-05-04 11:48 | -6.11633 | 106.66471 | 43 ft | 0 kts | 248° |
| 2026-05-04 11:52 | -6.11634 | 106.66469 | 43 ft | 3 kts | 248° |
| 2026-05-04 11:52 | -6.11629 | 106.66407 | 40 ft | 13 kts | 306° |
| 2026-05-04 11:53 | -6.11538 | 106.66364 | 44 ft | 16 kts | 338° |
| 2026-05-04 11:53 | -6.11427 | 106.66320 | 44 ft | 18 kts | 338° |
| 2026-05-04 11:53 | -6.11334 | 106.66306 | 44 ft | 13 kts | 29° |
| 2026-05-04 11:53 | -6.11288 | 106.66389 | 44 ft | 15 kts | 68° |
| 2026-05-04 11:55 | -6.10991 | 106.66962 | 43 ft | 11 kts | 349° |
| 2026-05-04 11:55 | -6.10916 | 106.66893 | 42 ft | 16 kts | 303° |
| 2026-05-04 11:56 | -6.10920 | 106.66828 | 41 ft | 6 kts | 249° |
| 2026-05-04 11:56 | -6.10921 | 106.66824 | 40 ft | 0 kts | 249° |
| 2026-05-04 11:56 | -6.10984 | 106.66666 | 43 ft | 60 kts | 248° |
| 2026-05-04 11:56 | -6.11235 | 106.66032 | 43 ft | 132 kts | 248° |
| 2026-05-04 11:57 | -6.11659 | 106.64994 | 233 ft | 174 kts | 246° |
| 2026-05-04 11:57 | -6.12096 | 106.63883 | 1093 ft | 170 kts | 249° |
| 2026-05-04 11:57 | -6.12217 | 106.62657 | 1585 ft | 191 kts | 284° |
| 2026-05-04 11:57 | -6.11747 | 106.61329 | 1897 ft | 218 kts | 292° |
| 2026-05-04 11:58 | -6.10903 | 106.59960 | 2218 ft | 246 kts | 314° |
| 2026-05-04 11:58 | -6.09368 | 106.59132 | 2722 ft | 259 kts | 352° |
| 2026-05-04 11:58 | -6.07582 | 106.59390 | 3501 ft | 262 kts | 27° |
| 2026-05-04 11:58 | -6.06129 | 106.60493 | 4315 ft | 265 kts | 44° |
| 2026-05-04 11:59 | -6.04772 | 106.61770 | 5119 ft | 270 kts | 44° |
| 2026-05-04 11:59 | -6.03380 | 106.63023 | 5953 ft | 273 kts | 42° |
| 2026-05-04 11:59 | -6.01931 | 106.64270 | 6778 ft | 276 kts | 41° |
| 2026-05-04 11:59 | -6.00445 | 106.65514 | 7586 ft | 280 kts | 40° |
| 2026-05-04 12:00 | -5.98929 | 106.66765 | 8432 ft | 284 kts | 40° |
| 2026-05-04 12:00 | -5.97386 | 106.68027 | 9301 ft | 288 kts | 40° |
| 2026-05-04 12:00 | -5.95822 | 106.69301 | 10138 ft | 291 kts | 40° |
| 2026-05-04 12:00 | -5.94203 | 106.70617 | 10627 ft | 309 kts | 40° |
| 2026-05-04 12:01 | -5.92474 | 106.72022 | 10957 ft | 330 kts | 40° |
| 2026-05-04 12:01 | -5.90636 | 106.73512 | 11281 ft | 348 kts | 40° |
| 2026-05-04 12:02 | -5.78717 | 106.83167 | 14822 ft | 378 kts | 40° |
| 2026-05-04 12:03 | -5.76661 | 106.84832 | 15356 ft | 382 kts | 40° |
| 2026-05-04 12:03 | -5.74583 | 106.86514 | 15907 ft | 385 kts | 40° |
| 2026-05-04 12:03 | -5.72486 | 106.88213 | 16449 ft | 389 kts | 40° |
| 2026-05-04 12:03 | -5.70373 | 106.89923 | 17014 ft | 392 kts | 40° |
| 2026-05-04 12:04 | -5.68240 | 106.91650 | 17544 ft | 395 kts | 40° |
| 2026-05-04 12:04 | -5.66119 | 106.93368 | 18094 ft | 398 kts | 40° |
| 2026-05-04 12:04 | -5.63955 | 106.95119 | 18577 ft | 401 kts | 40° |
| 2026-05-04 12:04 | -5.61773 | 106.96885 | 19059 ft | 404 kts | 40° |
| 2026-05-04 12:05 | -5.59584 | 106.98657 | 19538 ft | 406 kts | 40° |
| 2026-05-04 12:05 | -5.57372 | 107.00447 | 20019 ft | 409 kts | 40° |
| 2026-05-04 12:05 | -5.55144 | 107.02250 | 20504 ft | 412 kts | 40° |
| 2026-05-04 12:05 | -5.52905 | 107.04061 | 20998 ft | 415 kts | 40° |
| 2026-05-04 12:06 | -5.50655 | 107.05882 | 21492 ft | 418 kts | 40° |
| 2026-05-04 12:06 | -5.48384 | 107.07719 | 21992 ft | 421 kts | 40° |
| 2026-05-04 12:06 | -5.46098 | 107.09568 | 22490 ft | 424 kts | 40° |
| 2026-05-04 12:06 | -5.43791 | 107.11433 | 22998 ft | 426 kts | 41° |
| 2026-05-04 12:07 | -5.41477 | 107.13305 | 23490 ft | 429 kts | 41° |
| 2026-05-04 12:07 | -5.39143 | 107.15192 | 23879 ft | 432 kts | 41° |
| 2026-05-04 12:07 | -5.36799 | 107.17087 | 24289 ft | 434 kts | 40° |
| 2026-05-04 12:07 | -5.34434 | 107.18999 | 24709 ft | 437 kts | 40° |
| 2026-05-04 12:08 | -5.32054 | 107.20922 | 25156 ft | 440 kts | 40° |
| 2026-05-04 12:08 | -5.29667 | 107.22852 | 25635 ft | 442 kts | 40° |
| 2026-05-04 12:08 | -5.27263 | 107.24795 | 26092 ft | 445 kts | 40° |
| 2026-05-04 12:08 | -5.24843 | 107.26750 | 26582 ft | 449 kts | 40° |
| 2026-05-04 12:09 | -5.22400 | 107.28724 | 27063 ft | 452 kts | 40° |
| 2026-05-04 12:09 | -5.19946 | 107.30707 | 27565 ft | 455 kts | 40° |
| 2026-05-04 12:09 | -5.17475 | 107.32703 | 28046 ft | 458 kts | 40° |
| 2026-05-04 12:09 | -5.14986 | 107.34713 | 28514 ft | 461 kts | 40° |
| 2026-05-04 12:10 | -5.12474 | 107.36742 | 28992 ft | 464 kts | 40° |
| 2026-05-04 12:10 | -5.09955 | 107.38777 | 29451 ft | 467 kts | 40° |
| 2026-05-04 12:10 | -5.07409 | 107.40832 | 29889 ft | 471 kts | 40° |
| 2026-05-04 12:10 | -5.04853 | 107.42896 | 30229 ft | 474 kts | 40° |
| 2026-05-04 12:11 | -5.02300 | 107.44957 | 30576 ft | 478 kts | 39° |
| 2026-05-04 12:11 | -4.99701 | 107.47055 | 30917 ft | 481 kts | 40° |
| 2026-05-04 12:11 | -4.97088 | 107.49164 | 31249 ft | 484 kts | 40° |
| 2026-05-04 12:11 | -4.94459 | 107.51286 | 31568 ft | 487 kts | 40° |
| 2026-05-04 12:12 | -4.91818 | 107.53418 | 31894 ft | 489 kts | 40° |
| 2026-05-04 12:12 | -4.89156 | 107.55565 | 32187 ft | 492 kts | 40° |
| 2026-05-04 12:12 | -4.86481 | 107.57724 | 32495 ft | 495 kts | 40° |
| 2026-05-04 12:12 | -4.83793 | 107.59892 | 32775 ft | 497 kts | 40° |
| 2026-05-04 12:13 | -4.81094 | 107.62069 | 33074 ft | 499 kts | 40° |
| 2026-05-04 12:14 | -4.62231 | 107.77278 | 35564 ft | 496 kts | 39° |
| 2026-05-04 12:15 | -4.59543 | 107.79445 | 35902 ft | 495 kts | 39° |
| 2026-05-04 12:15 | -4.56860 | 107.81608 | 36210 ft | 495 kts | 39° |
| 2026-05-04 12:15 | -4.54178 | 107.83768 | 36556 ft | 494 kts | 39° |
| 2026-05-04 12:15 | -4.51505 | 107.85922 | 36868 ft | 493 kts | 39° |
| 2026-05-04 12:16 | -4.48828 | 107.88079 | 37194 ft | 493 kts | 39° |
| 2026-05-04 12:16 | -4.46161 | 107.90228 | 37503 ft | 492 kts | 39° |
| 2026-05-04 12:16 | -4.43488 | 107.92381 | 37803 ft | 492 kts | 40° |
| 2026-05-04 12:16 | -4.40825 | 107.94526 | 38132 ft | 491 kts | 39° |
| 2026-05-04 12:17 | -4.38162 | 107.96671 | 38436 ft | 491 kts | 39° |
| 2026-05-04 12:17 | -4.35539 | 107.98783 | 38695 ft | 490 kts | 39° |
| 2026-05-04 12:17 | -4.32884 | 108.00921 | 38914 ft | 490 kts | 39° |
| 2026-05-04 12:17 | -4.30229 | 108.03058 | 39146 ft | 490 kts | 39° |
| 2026-05-04 12:18 | -4.27577 | 108.05194 | 39431 ft | 487 kts | 39° |
| 2026-05-04 12:18 | -4.24936 | 108.07320 | 39732 ft | 485 kts | 39° |
| 2026-05-04 12:18 | -4.22314 | 108.09430 | 40011 ft | 483 kts | 39° |
| 2026-05-04 12:18 | -4.19700 | 108.11534 | 40275 ft | 481 kts | 39° |
| 2026-05-04 12:19 | -4.17096 | 108.13630 | 40507 ft | 480 kts | 39° |
| 2026-05-04 12:19 | -4.14499 | 108.15720 | 40750 ft | 478 kts | 39° |
| 2026-05-04 12:19 | -4.11899 | 108.17812 | 40892 ft | 479 kts | 39° |
| 2026-05-04 12:19 | -4.09288 | 108.19879 | 40901 ft | 478 kts | 38° |
| 2026-05-04 12:20 | -4.04048 | 108.23960 | 40901 ft | 477 kts | 38° |
| 2026-05-04 12:20 | -3.98808 | 108.28037 | 40901 ft | 477 kts | 38° |
| 2026-05-04 12:21 | -3.93567 | 108.32131 | 40901 ft | 478 kts | 38° |
| 2026-05-04 12:21 | -3.88319 | 108.36237 | 40898 ft | 479 kts | 38° |
| 2026-05-04 12:22 | -3.83075 | 108.40342 | 40896 ft | 479 kts | 38° |
| 2026-05-04 12:22 | -3.77820 | 108.44453 | 40901 ft | 479 kts | 38° |
| 2026-05-04 12:23 | -3.72568 | 108.48562 | 40897 ft | 479 kts | 38° |
| 2026-05-04 12:23 | -3.67316 | 108.52669 | 40895 ft | 479 kts | 38° |
| 2026-05-04 12:24 | -3.62060 | 108.56779 | 40898 ft | 479 kts | 38° |
| 2026-05-04 12:24 | -3.56804 | 108.60888 | 40901 ft | 479 kts | 38° |
| 2026-05-04 12:25 | -3.51589 | 108.64965 | 40903 ft | 479 kts | 38° |
| 2026-05-04 12:25 | -3.46338 | 108.69069 | 40900 ft | 479 kts | 38° |
| 2026-05-04 12:26 | -3.41091 | 108.73169 | 40901 ft | 479 kts | 38° |
| 2026-05-04 12:26 | -3.35843 | 108.77270 | 40902 ft | 479 kts | 38° |
| 2026-05-04 12:27 | -3.30594 | 108.81370 | 40903 ft | 478 kts | 38° |
| 2026-05-04 12:27 | -3.25348 | 108.85468 | 40899 ft | 478 kts | 38° |
| 2026-05-04 12:28 | -3.20103 | 108.89565 | 40900 ft | 478 kts | 38° |
| 2026-05-04 12:28 | -3.14859 | 108.93661 | 40903 ft | 478 kts | 38° |
| 2026-05-04 12:29 | -3.09614 | 108.97756 | 40904 ft | 478 kts | 38° |
| 2026-05-04 12:29 | -3.04400 | 109.01828 | 40904 ft | 478 kts | 38° |
| 2026-05-04 12:30 | -2.99155 | 109.05922 | 40907 ft | 478 kts | 38° |
| 2026-05-04 12:30 | -2.93912 | 109.10014 | 40905 ft | 478 kts | 38° |
| 2026-05-04 12:31 | -2.88668 | 109.14108 | 40906 ft | 478 kts | 38° |
| 2026-05-04 12:31 | -2.83489 | 109.18260 | 40898 ft | 477 kts | 39° |
| 2026-05-04 12:32 | -2.75781 | 109.24541 | 40904 ft | 476 kts | 39° |
| 2026-05-04 12:33 | -2.70634 | 109.28718 | 40902 ft | 476 kts | 39° |
| 2026-05-04 12:33 | -2.65482 | 109.32887 | 40898 ft | 476 kts | 39° |
| 2026-05-04 12:34 | -2.60330 | 109.37052 | 40908 ft | 476 kts | 39° |
| 2026-05-04 12:34 | -2.55179 | 109.41218 | 40904 ft | 476 kts | 39° |
| 2026-05-04 12:35 | -2.50021 | 109.45388 | 40902 ft | 476 kts | 40° |
| 2026-05-04 12:35 | -2.44908 | 109.49523 | 40905 ft | 476 kts | 40° |
| 2026-05-04 12:36 | -2.39767 | 109.53680 | 40904 ft | 476 kts | 40° |
| 2026-05-04 12:36 | -2.34617 | 109.57843 | 40904 ft | 476 kts | 40° |
| 2026-05-04 12:37 | -2.29474 | 109.62001 | 40906 ft | 476 kts | 40° |
| 2026-05-04 12:37 | -2.24324 | 109.66164 | 40908 ft | 476 kts | 40° |
| 2026-05-04 12:38 | -2.20043 | 109.69624 | 40908 ft | 476 kts | 40° |
| 2026-05-04 12:38 | -2.14893 | 109.73786 | 40904 ft | 476 kts | 40° |
| 2026-05-04 12:39 | -2.09730 | 109.77958 | 40903 ft | 477 kts | 40° |
| 2026-05-04 12:39 | -2.03728 | 109.82808 | 40902 ft | 477 kts | 39° |
| 2026-05-04 12:40 | -1.99399 | 109.86306 | 40907 ft | 477 kts | 39° |
| 2026-05-04 12:40 | -1.94275 | 109.90445 | 40906 ft | 476 kts | 39° |
| 2026-05-04 12:41 | -1.89121 | 109.94608 | 40907 ft | 476 kts | 39° |
| 2026-05-04 12:41 | -1.83963 | 109.98775 | 40906 ft | 477 kts | 39° |
| 2026-05-04 12:42 | -1.78807 | 110.02939 | 40904 ft | 477 kts | 39° |
| 2026-05-04 12:42 | -1.73644 | 110.07109 | 40908 ft | 478 kts | 39° |
| 2026-05-04 12:43 | -1.68475 | 110.11284 | 40905 ft | 478 kts | 39° |
| 2026-05-04 12:43 | -1.63237 | 110.15375 | 40906 ft | 478 kts | 38° |
| 2026-05-04 12:44 | -1.57929 | 110.19355 | 40910 ft | 477 kts | 37° |
| 2026-05-04 12:44 | -1.52624 | 110.23343 | 40909 ft | 477 kts | 38° |
| 2026-05-04 12:45 | -1.47337 | 110.27349 | 40907 ft | 477 kts | 38° |
| 2026-05-04 12:45 | -1.42054 | 110.31364 | 40904 ft | 477 kts | 38° |
| 2026-05-04 12:46 | -1.36778 | 110.35375 | 40909 ft | 477 kts | 38° |
| 2026-05-04 12:46 | -1.31501 | 110.39386 | 40909 ft | 477 kts | 38° |
| 2026-05-04 12:47 | -1.26236 | 110.43411 | 40910 ft | 476 kts | 38° |
| 2026-05-04 12:47 | -1.21012 | 110.47493 | 40916 ft | 476 kts | 39° |
| 2026-05-04 12:48 | -1.15793 | 110.51583 | 40914 ft | 477 kts | 39° |
| 2026-05-04 12:48 | -1.10566 | 110.55668 | 40914 ft | 477 kts | 39° |
| 2026-05-04 12:49 | -1.05371 | 110.59721 | 40914 ft | 477 kts | 39° |
| 2026-05-04 12:49 | -1.00144 | 110.63796 | 40919 ft | 476 kts | 39° |
| 2026-05-04 12:50 | -0.94918 | 110.67871 | 40919 ft | 476 kts | 39° |
| 2026-05-04 12:50 | -0.89695 | 110.71945 | 40920 ft | 476 kts | 39° |
| 2026-05-04 12:51 | -0.84469 | 110.76020 | 40928 ft | 476 kts | 39° |
| 2026-05-04 12:51 | -0.79244 | 110.80094 | 40928 ft | 476 kts | 39° |
| 2026-05-04 12:52 | -0.74020 | 110.84168 | 40928 ft | 477 kts | 39° |
| 2026-05-04 12:52 | -0.68791 | 110.88245 | 40934 ft | 476 kts | 39° |
| 2026-05-04 12:53 | -0.63567 | 110.92318 | 40936 ft | 476 kts | 39° |
| 2026-05-04 12:53 | -0.58345 | 110.96389 | 40936 ft | 476 kts | 39° |
| 2026-05-04 12:54 | -0.53156 | 111.00435 | 40931 ft | 476 kts | 39° |
| 2026-05-04 12:54 | -0.47928 | 111.04511 | 40936 ft | 476 kts | 39° |
| 2026-05-04 12:55 | -0.42706 | 111.08582 | 40929 ft | 476 kts | 39° |
| 2026-05-04 12:55 | -0.37483 | 111.12656 | 40930 ft | 476 kts | 39° |
| 2026-05-04 12:56 | -0.32254 | 111.16724 | 40935 ft | 477 kts | 39° |
| 2026-05-04 12:56 | -0.27004 | 111.20788 | 40928 ft | 478 kts | 39° |
| 2026-05-04 12:57 | -0.21751 | 111.24859 | 40923 ft | 478 kts | 39° |
| 2026-05-04 12:57 | -0.16496 | 111.28934 | 40922 ft | 478 kts | 39° |
| 2026-05-04 12:58 | -0.11253 | 111.33002 | 40923 ft | 478 kts | 39° |
| 2026-05-04 12:58 | -0.06000 | 111.37078 | 40922 ft | 478 kts | 39° |
| 2026-05-04 12:59 | -0.00753 | 111.41149 | 40924 ft | 478 kts | 39° |
| 2026-05-04 12:59 | 0.04500 | 111.45224 | 40923 ft | 478 kts | 39° |
| 2026-05-04 13:00 | 0.09764 | 111.49308 | 40923 ft | 479 kts | 39° |
| 2026-05-04 13:00 | 0.15020 | 111.53386 | 40925 ft | 479 kts | 39° |
| 2026-05-04 13:01 | 0.20289 | 111.57475 | 40929 ft | 479 kts | 39° |
| 2026-05-04 13:01 | 0.25521 | 111.61534 | 40928 ft | 479 kts | 39° |
| 2026-05-04 13:02 | 0.30774 | 111.65610 | 40930 ft | 479 kts | 39° |
| 2026-05-04 13:02 | 0.36043 | 111.69698 | 40930 ft | 479 kts | 39° |
| 2026-05-04 13:03 | 0.41305 | 111.73781 | 40928 ft | 479 kts | 39° |
| 2026-05-04 13:03 | 0.46569 | 111.77865 | 40931 ft | 479 kts | 39° |
| 2026-05-04 13:04 | 0.51831 | 111.81948 | 40935 ft | 478 kts | 39° |
| 2026-05-04 13:04 | 0.57086 | 111.86026 | 40939 ft | 478 kts | 39° |
| 2026-05-04 13:05 | 0.62336 | 111.90100 | 40935 ft | 478 kts | 39° |
| 2026-05-04 13:05 | 0.67580 | 111.94169 | 40935 ft | 477 kts | 39° |
| 2026-05-04 13:06 | 0.72793 | 111.98214 | 40939 ft | 477 kts | 39° |
| 2026-05-04 13:06 | 0.78069 | 112.02309 | 40939 ft | 477 kts | 39° |
| 2026-05-04 13:07 | 0.83279 | 112.06353 | 40936 ft | 477 kts | 39° |
| 2026-05-04 13:07 | 0.88524 | 112.10423 | 40939 ft | 477 kts | 39° |
| 2026-05-04 13:08 | 0.93764 | 112.14490 | 40942 ft | 477 kts | 39° |
| 2026-05-04 13:08 | 0.99021 | 112.18570 | 40938 ft | 478 kts | 39° |
| 2026-05-04 13:09 | 1.04281 | 112.22653 | 40945 ft | 479 kts | 39° |
| 2026-05-04 13:09 | 1.09539 | 112.26734 | 40946 ft | 479 kts | 39° |
| 2026-05-04 13:10 | 1.14807 | 112.30823 | 40954 ft | 479 kts | 39° |
| 2026-05-04 13:10 | 1.20037 | 112.34883 | 40954 ft | 479 kts | 39° |
| 2026-05-04 13:11 | 1.25301 | 112.38970 | 40958 ft | 479 kts | 39° |
| 2026-05-04 13:11 | 1.30561 | 112.43053 | 40966 ft | 479 kts | 39° |
| 2026-05-04 13:12 | 1.35826 | 112.47142 | 40965 ft | 479 kts | 39° |
| 2026-05-04 13:12 | 1.41084 | 112.51224 | 40966 ft | 478 kts | 39° |
| 2026-05-04 13:13 | 1.46344 | 112.55309 | 40975 ft | 479 kts | 39° |
| 2026-05-04 13:13 | 1.51604 | 112.59393 | 40971 ft | 479 kts | 39° |
| 2026-05-04 13:14 | 1.56869 | 112.63483 | 40969 ft | 479 kts | 39° |
| 2026-05-04 13:14 | 1.62114 | 112.67584 | 40972 ft | 479 kts | 39° |
| 2026-05-04 13:15 | 1.67350 | 112.71699 | 40975 ft | 479 kts | 39° |
| 2026-05-04 13:15 | 1.72592 | 112.75816 | 40970 ft | 479 kts | 39° |
| 2026-05-04 13:16 | 1.77835 | 112.79931 | 40964 ft | 480 kts | 39° |
| 2026-05-04 13:16 | 1.83068 | 112.84037 | 40964 ft | 483 kts | 39° |
| 2026-05-04 13:17 | 1.88356 | 112.88187 | 40960 ft | 483 kts | 39° |
| 2026-05-04 13:17 | 1.93678 | 112.92363 | 40959 ft | 483 kts | 39° |
| 2026-05-04 13:18 | 1.98874 | 112.96440 | 40959 ft | 483 kts | 39° |
| 2026-05-04 13:18 | 2.04159 | 113.00588 | 40957 ft | 483 kts | 39° |
| 2026-05-04 13:19 | 2.09449 | 113.04741 | 40956 ft | 483 kts | 39° |
| 2026-05-04 13:19 | 2.14747 | 113.08900 | 40951 ft | 484 kts | 39° |
| 2026-05-04 13:20 | 2.20042 | 113.13057 | 40952 ft | 484 kts | 39° |
| 2026-05-04 13:20 | 2.25330 | 113.17209 | 40950 ft | 483 kts | 39° |
| 2026-05-04 13:21 | 2.30592 | 113.21340 | 40952 ft | 482 kts | 39° |
| 2026-05-04 13:21 | 2.35869 | 113.25485 | 40952 ft | 482 kts | 39° |
| 2026-05-04 13:22 | 2.41151 | 113.29634 | 40951 ft | 482 kts | 39° |
| 2026-05-04 13:22 | 2.46399 | 113.33755 | 40950 ft | 482 kts | 39° |
| 2026-05-04 13:23 | 2.51662 | 113.37890 | 40952 ft | 482 kts | 39° |
| 2026-05-04 13:23 | 2.56931 | 113.42029 | 40950 ft | 482 kts | 39° |
| 2026-05-04 13:24 | 2.62192 | 113.46163 | 40952 ft | 482 kts | 39° |
| 2026-05-04 13:24 | 2.67440 | 113.50287 | 40953 ft | 482 kts | 39° |
| 2026-05-04 13:25 | 2.74464 | 113.55807 | 40955 ft | 482 kts | 39° |
| 2026-05-04 13:25 | 2.79723 | 113.59952 | 40955 ft | 482 kts | 39° |
| 2026-05-04 13:26 | 2.84974 | 113.64091 | 40952 ft | 482 kts | 39° |
| 2026-05-04 13:26 | 2.90248 | 113.68248 | 40952 ft | 482 kts | 39° |
| 2026-05-04 13:27 | 2.95521 | 113.72405 | 40953 ft | 482 kts | 39° |
| 2026-05-04 13:27 | 3.00752 | 113.76531 | 40960 ft | 483 kts | 39° |
| 2026-05-04 13:28 | 3.05982 | 113.80656 | 40961 ft | 483 kts | 39° |
| 2026-05-04 13:28 | 3.11207 | 113.84779 | 40957 ft | 483 kts | 39° |
| 2026-05-04 13:29 | 3.16469 | 113.88931 | 40967 ft | 483 kts | 39° |
| 2026-05-04 13:29 | 3.21736 | 113.93088 | 40962 ft | 483 kts | 39° |
| 2026-05-04 13:30 | 3.26890 | 113.97155 | 40959 ft | 484 kts | 39° |
| 2026-05-04 13:30 | 3.32144 | 114.01303 | 40966 ft | 484 kts | 39° |
| 2026-05-04 13:31 | 3.37429 | 114.05475 | 40955 ft | 483 kts | 39° |
| 2026-05-04 13:31 | 3.42712 | 114.09647 | 40957 ft | 483 kts | 39° |
| 2026-05-04 13:32 | 3.47996 | 114.13819 | 40967 ft | 484 kts | 39° |
| 2026-05-04 13:32 | 3.53287 | 114.17998 | 40955 ft | 485 kts | 39° |
| 2026-05-04 13:33 | 3.58558 | 114.22162 | 40949 ft | 486 kts | 39° |
| 2026-05-04 13:33 | 3.63874 | 114.26361 | 40954 ft | 486 kts | 39° |
| 2026-05-04 13:34 | 3.69185 | 114.30558 | 40955 ft | 486 kts | 39° |
| 2026-05-04 13:34 | 3.74499 | 114.34757 | 40955 ft | 486 kts | 39° |
| 2026-05-04 13:35 | 3.82473 | 114.41060 | 40949 ft | 487 kts | 39° |
| 2026-05-04 13:36 | 3.87793 | 114.45266 | 40948 ft | 487 kts | 39° |
| 2026-05-04 13:36 | 3.93110 | 114.49471 | 40948 ft | 487 kts | 39° |
| 2026-05-04 13:37 | 3.98483 | 114.53606 | 40959 ft | 487 kts | 37° |
| 2026-05-04 13:37 | 4.03925 | 114.57652 | 40949 ft | 487 kts | 37° |
| 2026-05-04 13:38 | 4.09360 | 114.61704 | 40949 ft | 487 kts | 37° |
| 2026-05-04 13:38 | 4.14792 | 114.65783 | 40957 ft | 487 kts | 38° |
| 2026-05-04 13:39 | 4.20176 | 114.69837 | 40953 ft | 487 kts | 38° |
| 2026-05-04 13:39 | 4.25593 | 114.73918 | 40955 ft | 487 kts | 38° |
| 2026-05-04 13:40 | 4.31008 | 114.77997 | 40960 ft | 487 kts | 38° |
| 2026-05-04 13:40 | 4.36429 | 114.82081 | 40958 ft | 487 kts | 38° |
| 2026-05-04 13:41 | 4.41846 | 114.86162 | 40960 ft | 487 kts | 38° |
| 2026-05-04 13:41 | 4.47222 | 114.90293 | 40951 ft | 487 kts | 39° |
| 2026-05-04 13:42 | 4.55096 | 114.96733 | 40949 ft | 488 kts | 40° |
| 2026-05-04 13:42 | 4.60331 | 115.01010 | 40947 ft | 488 kts | 39° |
| 2026-05-04 13:43 | 4.65607 | 115.05289 | 40949 ft | 488 kts | 39° |
| 2026-05-04 13:43 | 4.70895 | 115.09570 | 40947 ft | 488 kts | 39° |
| 2026-05-04 13:44 | 4.76184 | 115.13850 | 40943 ft | 488 kts | 39° |
| 2026-05-04 13:44 | 4.81467 | 115.18128 | 40948 ft | 488 kts | 40° |
| 2026-05-04 13:45 | 4.86759 | 115.22411 | 40940 ft | 489 kts | 39° |
| 2026-05-04 13:45 | 4.92100 | 115.26642 | 40939 ft | 490 kts | 39° |
| 2026-05-04 13:46 | 4.97465 | 115.30861 | 40930 ft | 490 kts | 39° |
| 2026-05-04 13:46 | 5.02823 | 115.35086 | 40927 ft | 489 kts | 39° |
| 2026-05-04 13:47 | 5.08127 | 115.39280 | 40934 ft | 488 kts | 39° |
| 2026-05-04 13:47 | 5.13458 | 115.43499 | 40920 ft | 488 kts | 39° |
| 2026-05-04 13:48 | 5.18787 | 115.47719 | 40923 ft | 488 kts | 39° |
| 2026-05-04 13:48 | 5.24124 | 115.51943 | 40908 ft | 488 kts | 39° |
| 2026-05-04 13:49 | 5.29449 | 115.56160 | 40912 ft | 488 kts | 39° |
| 2026-05-04 13:49 | 5.34778 | 115.60381 | 40912 ft | 488 kts | 39° |
| 2026-05-04 13:50 | 5.40115 | 115.64599 | 40905 ft | 488 kts | 39° |
| 2026-05-04 13:50 | 5.45480 | 115.68770 | 40904 ft | 488 kts | 38° |
| 2026-05-04 13:51 | 5.50849 | 115.72933 | 40894 ft | 488 kts | 38° |
| 2026-05-04 13:51 | 5.56220 | 115.77109 | 40900 ft | 487 kts | 39° |
| 2026-05-04 13:52 | 5.64253 | 115.83369 | 40892 ft | 487 kts | 38° |
| 2026-05-04 13:53 | 5.69575 | 115.87517 | 40889 ft | 487 kts | 38° |
| 2026-05-04 13:53 | 5.74932 | 115.91694 | 40890 ft | 487 kts | 38° |
| 2026-05-04 13:54 | 5.82970 | 115.97963 | 40883 ft | 486 kts | 38° |
| 2026-05-04 13:55 | 5.90966 | 116.04199 | 40884 ft | 485 kts | 38° |
| 2026-05-04 13:55 | 5.99252 | 116.10039 | 40884 ft | 485 kts | 35° |
| 2026-05-04 13:56 | 6.04833 | 116.13849 | 40890 ft | 485 kts | 35° |
| 2026-05-04 13:57 | 6.13162 | 116.19640 | 40901 ft | 485 kts | 36° |
| 2026-05-04 13:58 | 6.24270 | 116.27426 | 40921 ft | 488 kts | 36° |
| 2026-05-04 13:58 | 6.32617 | 116.33275 | 40927 ft | 487 kts | 36° |
| 2026-05-04 13:59 | 6.38187 | 116.37178 | 40924 ft | 487 kts | 36° |
| 2026-05-04 14:00 | 6.46493 | 116.42999 | 40927 ft | 487 kts | 36° |
| 2026-05-04 14:00 | 6.54851 | 116.48859 | 40922 ft | 488 kts | 36° |
| 2026-05-04 14:01 | 6.60414 | 116.52772 | 40924 ft | 488 kts | 36° |
| 2026-05-04 14:02 | 6.68768 | 116.58649 | 40917 ft | 488 kts | 36° |
| 2026-05-04 14:02 | 6.74346 | 116.62567 | 40915 ft | 487 kts | 36° |
| 2026-05-04 14:03 | 6.79901 | 116.66474 | 40917 ft | 487 kts | 36° |
| 2026-05-04 14:03 | 6.85453 | 116.70381 | 40913 ft | 487 kts | 36° |
| 2026-05-04 14:04 | 6.93784 | 116.76247 | 40912 ft | 487 kts | 36° |
| 2026-05-04 14:04 | 6.99336 | 116.80158 | 40910 ft | 487 kts | 36° |
| 2026-05-04 14:05 | 7.07623 | 116.85997 | 40916 ft | 487 kts | 36° |
| 2026-05-04 14:06 | 7.13173 | 116.89909 | 40917 ft | 488 kts | 36° |
| 2026-05-04 14:06 | 7.18737 | 116.93832 | 40915 ft | 489 kts | 36° |
| 2026-05-04 14:07 | 7.24308 | 116.97760 | 40918 ft | 489 kts | 36° |
| 2026-05-04 14:07 | 7.29877 | 117.01689 | 40916 ft | 489 kts | 36° |
| 2026-05-04 14:08 | 7.35447 | 117.05620 | 40914 ft | 489 kts | 36° |
| 2026-05-04 14:08 | 7.41017 | 117.09552 | 40916 ft | 489 kts | 36° |
| 2026-05-04 14:09 | 7.49375 | 117.15454 | 40917 ft | 489 kts | 36° |
| 2026-05-04 14:10 | 7.57703 | 117.21339 | 40916 ft | 490 kts | 36° |
| 2026-05-04 14:10 | 7.63285 | 117.25284 | 40916 ft | 490 kts | 36° |
| 2026-05-04 14:11 | 7.68869 | 117.29233 | 40915 ft | 490 kts | 36° |
| 2026-05-04 14:11 | 7.77221 | 117.35196 | 40912 ft | 490 kts | 37° |
| 2026-05-04 14:12 | 7.82765 | 117.39164 | 40911 ft | 489 kts | 37° |
| 2026-05-04 14:13 | 7.91102 | 117.45131 | 40911 ft | 489 kts | 36° |
| 2026-05-04 14:13 | 7.95709 | 117.48428 | 40913 ft | 489 kts | 37° |
| 2026-05-04 14:14 | 8.01266 | 117.52406 | 40910 ft | 489 kts | 37° |
| 2026-05-04 14:14 | 8.09590 | 117.58368 | 40913 ft | 490 kts | 36° |
| 2026-05-04 14:15 | 8.20738 | 117.66358 | 40916 ft | 492 kts | 36° |
| 2026-05-04 14:16 | 8.29110 | 117.72361 | 40916 ft | 492 kts | 37° |
| 2026-05-04 14:17 | 8.37479 | 117.78365 | 40917 ft | 492 kts | 37° |
| 2026-05-04 14:18 | 8.45827 | 117.84358 | 40923 ft | 493 kts | 37° |
| 2026-05-04 14:19 | 8.57036 | 117.92409 | 40920 ft | 494 kts | 37° |
| 2026-05-04 14:19 | 8.62640 | 117.96437 | 40925 ft | 494 kts | 37° |
| 2026-05-04 14:20 | 8.68243 | 118.00465 | 40919 ft | 494 kts | 37° |
| 2026-05-04 14:20 | 8.73833 | 118.04486 | 40923 ft | 493 kts | 36° |
| 2026-05-04 14:21 | 8.82164 | 118.10480 | 40926 ft | 492 kts | 36° |
| 2026-05-04 14:21 | 8.87745 | 118.14499 | 40928 ft | 492 kts | 37° |
| 2026-05-04 14:22 | 8.93330 | 118.18521 | 40923 ft | 492 kts | 37° |
| 2026-05-04 14:22 | 8.98912 | 118.22543 | 40926 ft | 492 kts | 37° |
| 2026-05-04 14:23 | 9.07281 | 118.28576 | 40928 ft | 492 kts | 36° |
| 2026-05-04 14:24 | 9.12847 | 118.32603 | 40928 ft | 492 kts | 36° |
| 2026-05-04 14:24 | 9.18416 | 118.36644 | 40927 ft | 492 kts | 36° |
| 2026-05-04 14:25 | 9.23983 | 118.40685 | 40933 ft | 493 kts | 37° |
| 2026-05-04 14:25 | 9.32304 | 118.46727 | 40932 ft | 493 kts | 36° |
| 2026-05-04 14:26 | 9.37885 | 118.50780 | 40935 ft | 494 kts | 36° |
| 2026-05-04 14:26 | 9.43465 | 118.54834 | 40930 ft | 494 kts | 36° |
| 2026-05-04 14:27 | 9.49056 | 118.58896 | 40930 ft | 494 kts | 36° |
| 2026-05-04 14:27 | 9.54639 | 118.62956 | 40931 ft | 494 kts | 36° |
| 2026-05-04 14:28 | 9.60224 | 118.67018 | 40927 ft | 494 kts | 36° |
| 2026-05-04 14:28 | 9.65763 | 118.71050 | 40923 ft | 493 kts | 36° |
| 2026-05-04 14:29 | 9.77282 | 118.78528 | 40919 ft | 492 kts | 26° |
| 2026-05-04 14:30 | 9.83495 | 118.81447 | 40925 ft | 493 kts | 24° |
| 2026-05-04 14:31 | 9.92879 | 118.85711 | 40923 ft | 493 kts | 24° |
| 2026-05-04 14:32 | 10.05376 | 118.91429 | 40928 ft | 492 kts | 24° |
| 2026-05-04 14:32 | 10.11581 | 118.94279 | 40928 ft | 492 kts | 24° |
| 2026-05-04 14:33 | 10.17831 | 118.97150 | 40925 ft | 492 kts | 24° |
| 2026-05-04 14:33 | 10.24087 | 119.00024 | 40927 ft | 493 kts | 25° |
| 2026-05-04 14:34 | 10.30341 | 119.02899 | 40930 ft | 494 kts | 24° |
| 2026-05-04 14:34 | 10.36591 | 119.05778 | 40931 ft | 494 kts | 25° |
| 2026-05-04 14:35 | 10.42851 | 119.08662 | 40929 ft | 493 kts | 24° |
| 2026-05-04 14:35 | 10.49071 | 119.11519 | 40927 ft | 493 kts | 25° |
| 2026-05-04 14:36 | 10.55329 | 119.14398 | 40930 ft | 493 kts | 25° |
| 2026-05-04 14:36 | 10.61585 | 119.17279 | 40927 ft | 493 kts | 24° |
| 2026-05-04 14:37 | 10.67844 | 119.20164 | 40925 ft | 494 kts | 24° |
| 2026-05-04 14:37 | 10.74101 | 119.23049 | 40925 ft | 493 kts | 24° |
| 2026-05-04 14:38 | 10.80347 | 119.25930 | 40930 ft | 493 kts | 24° |
| 2026-05-04 14:38 | 10.86604 | 119.28818 | 40933 ft | 493 kts | 24° |
| 2026-05-04 14:39 | 10.92848 | 119.31701 | 40929 ft | 493 kts | 24° |
| 2026-05-04 14:39 | 10.99054 | 119.34568 | 40930 ft | 493 kts | 24° |
| 2026-05-04 14:40 | 11.08416 | 119.38895 | 40930 ft | 493 kts | 24° |
| 2026-05-04 14:40 | 11.14668 | 119.41787 | 40930 ft | 493 kts | 24° |
| 2026-05-04 14:41 | 11.20903 | 119.44672 | 40931 ft | 492 kts | 24° |
| 2026-05-04 14:42 | 11.33376 | 119.50447 | 40930 ft | 492 kts | 24° |
| 2026-05-04 14:42 | 11.39613 | 119.53337 | 40930 ft | 492 kts | 24° |
| 2026-05-04 14:43 | 11.45851 | 119.56229 | 40930 ft | 492 kts | 24° |
| 2026-05-04 14:43 | 11.52081 | 119.59119 | 40931 ft | 492 kts | 24° |
| 2026-05-04 14:44 | 11.58326 | 119.62017 | 40932 ft | 492 kts | 24° |
| 2026-05-04 14:44 | 11.64561 | 119.64912 | 40933 ft | 492 kts | 24° |
| 2026-05-04 14:45 | 11.70910 | 119.67503 | 40934 ft | 492 kts | 12° |
| 2026-05-04 14:45 | 11.77562 | 119.68940 | 40929 ft | 492 kts | 11° |
| 2026-05-04 14:46 | 11.84274 | 119.70293 | 40933 ft | 492 kts | 11° |
| 2026-05-04 14:46 | 11.90992 | 119.71636 | 40933 ft | 492 kts | 11° |
| 2026-05-04 14:47 | 11.97705 | 119.72976 | 40933 ft | 492 kts | 11° |
| 2026-05-04 14:47 | 12.04423 | 119.74317 | 40933 ft | 492 kts | 11° |
| 2026-05-04 14:48 | 12.11131 | 119.75656 | 40932 ft | 491 kts | 10° |
| 2026-05-04 14:48 | 12.17826 | 119.76994 | 40934 ft | 488 kts | 10° |
| 2026-05-04 14:49 | 12.24494 | 119.78326 | 40933 ft | 488 kts | 10° |
| 2026-05-04 14:49 | 12.31160 | 119.79659 | 40933 ft | 488 kts | 10° |
| 2026-05-04 14:50 | 12.37782 | 119.80984 | 40933 ft | 488 kts | 10° |
| 2026-05-04 14:50 | 12.44457 | 119.82320 | 40933 ft | 489 kts | 10° |
| 2026-05-04 14:51 | 12.51139 | 119.83659 | 40934 ft | 489 kts | 10° |
| 2026-05-04 14:51 | 12.57815 | 119.84996 | 40935 ft | 488 kts | 10° |
| 2026-05-04 14:52 | 12.64489 | 119.86334 | 40937 ft | 488 kts | 10° |
| 2026-05-04 14:52 | 12.71160 | 119.87672 | 40941 ft | 488 kts | 10° |
| 2026-05-04 14:53 | 12.77870 | 119.89019 | 40940 ft | 493 kts | 10° |
| 2026-05-04 14:53 | 12.84615 | 119.90373 | 40806 ft | 490 kts | 10° |
| 2026-05-04 14:54 | 12.87949 | 119.91043 | 40213 ft | 488 kts | 10° |
| 2026-05-04 14:54 | 12.91244 | 119.91705 | 39509 ft | 489 kts | 10° |
| 2026-05-04 14:54 | 12.94588 | 119.92377 | 38801 ft | 491 kts | 10° |
| 2026-05-04 14:54 | 12.97989 | 119.93061 | 38005 ft | 492 kts | 10° |
| 2026-05-04 14:55 | 13.01358 | 119.93738 | 37243 ft | 493 kts | 10° |
| 2026-05-04 14:55 | 13.04722 | 119.94415 | 36470 ft | 493 kts | 10° |
| 2026-05-04 14:55 | 13.08090 | 119.95093 | 35754 ft | 493 kts | 10° |
| 2026-05-04 14:55 | 13.11453 | 119.95770 | 35052 ft | 492 kts | 10° |
| 2026-05-04 14:56 | 13.14769 | 119.96437 | 34361 ft | 491 kts | 10° |
| 2026-05-04 14:56 | 13.18116 | 119.97111 | 33618 ft | 491 kts | 10° |
| 2026-05-04 14:56 | 13.21476 | 119.97787 | 32666 ft | 493 kts | 11° |
| 2026-05-04 14:56 | 13.24863 | 119.98469 | 31578 ft | 499 kts | 11° |
| 2026-05-04 14:57 | 13.28295 | 119.99160 | 30445 ft | 506 kts | 12° |
| 2026-05-04 14:57 | 13.31770 | 119.99861 | 29242 ft | 513 kts | 12° |
| 2026-05-04 14:57 | 13.35281 | 120.00570 | 28344 ft | 511 kts | 12° |
| 2026-05-04 14:57 | 13.38745 | 120.01269 | 27593 ft | 506 kts | 12° |
| 2026-05-04 14:58 | 13.42182 | 120.01962 | 26880 ft | 501 kts | 12° |
| 2026-05-04 14:58 | 13.45590 | 120.02650 | 26180 ft | 496 kts | 12° |
| 2026-05-04 14:58 | 13.48934 | 120.03325 | 25593 ft | 481 kts | 12° |
| 2026-05-04 14:58 | 13.51068 | 120.03756 | 25262 ft | 464 kts | 12° |
| 2026-05-04 14:59 | 13.55159 | 120.04581 | 24627 ft | 432 kts | 12° |
| 2026-05-04 14:59 | 13.58042 | 120.05163 | 24194 ft | 411 kts | 12° |
| 2026-05-04 14:59 | 13.63397 | 120.06246 | 23290 ft | 378 kts | 12° |
| 2026-05-04 15:00 | 13.65955 | 120.06763 | 22493 ft | 371 kts | 12° |
| 2026-05-04 15:00 | 13.68466 | 120.07272 | 21701 ft | 365 kts | 13° |
| 2026-05-04 15:00 | 13.70938 | 120.07773 | 20944 ft | 359 kts | 13° |
| 2026-05-04 15:01 | 13.75730 | 120.08743 | 19451 ft | 348 kts | 13° |
| 2026-05-04 15:01 | 13.78115 | 120.09226 | 18939 ft | 349 kts | 13° |
| 2026-05-04 15:01 | 13.80477 | 120.09705 | 18597 ft | 344 kts | 13° |
| 2026-05-04 15:01 | 13.82815 | 120.10179 | 18224 ft | 341 kts | 13° |
| 2026-05-04 15:02 | 13.85116 | 120.10720 | 17759 ft | 337 kts | 18° |
| 2026-05-04 15:02 | 13.87307 | 120.11547 | 17328 ft | 333 kts | 24° |
| 2026-05-04 15:02 | 13.89428 | 120.12492 | 16859 ft | 332 kts | 25° |
| 2026-05-04 15:02 | 13.91531 | 120.13446 | 16440 ft | 329 kts | 25° |
| 2026-05-04 15:03 | 13.92917 | 120.14075 | 16155 ft | 327 kts | 25° |
| 2026-05-04 15:03 | 13.95692 | 120.15329 | 15563 ft | 325 kts | 25° |
| 2026-05-04 15:03 | 13.97056 | 120.15946 | 15291 ft | 323 kts | 25° |
| 2026-05-04 15:03 | 13.99108 | 120.16872 | 14874 ft | 321 kts | 25° |
| 2026-05-04 15:04 | 14.01149 | 120.17792 | 14466 ft | 318 kts | 25° |
| 2026-05-04 15:04 | 14.03171 | 120.18705 | 14074 ft | 316 kts | 25° |
| 2026-05-04 15:04 | 14.05179 | 120.19611 | 13665 ft | 314 kts | 25° |
| 2026-05-04 15:04 | 14.07171 | 120.20509 | 13218 ft | 311 kts | 25° |
| 2026-05-04 15:05 | 14.09145 | 120.21399 | 12800 ft | 308 kts | 25° |
| 2026-05-04 15:05 | 14.11099 | 120.22281 | 12378 ft | 305 kts | 25° |
| 2026-05-04 15:05 | 14.13030 | 120.23152 | 11968 ft | 302 kts | 26° |
| 2026-05-04 15:05 | 14.14949 | 120.24018 | 11555 ft | 299 kts | 26° |
| 2026-05-04 15:06 | 14.16848 | 120.24876 | 11152 ft | 297 kts | 26° |
| 2026-05-04 15:06 | 14.18731 | 120.25726 | 10743 ft | 294 kts | 26° |
| 2026-05-04 15:06 | 14.20594 | 120.26567 | 10353 ft | 291 kts | 26° |
| 2026-05-04 15:07 | 14.24289 | 120.28237 | 9464 ft | 289 kts | 26° |
| 2026-05-04 15:07 | 14.26125 | 120.29067 | 9030 ft | 286 kts | 26° |
| 2026-05-04 15:07 | 14.27941 | 120.29889 | 8591 ft | 284 kts | 26° |
| 2026-05-04 15:07 | 14.29720 | 120.30693 | 8160 ft | 282 kts | 26° |
| 2026-05-04 15:08 | 14.31508 | 120.31502 | 7745 ft | 279 kts | 26° |
| 2026-05-04 15:08 | 14.33276 | 120.32301 | 7331 ft | 277 kts | 27° |
| 2026-05-04 15:08 | 14.35028 | 120.33094 | 6913 ft | 275 kts | 26° |
| 2026-05-04 15:08 | 14.36773 | 120.33883 | 6514 ft | 272 kts | 27° |
| 2026-05-04 15:09 | 14.38466 | 120.34735 | 6095 ft | 269 kts | 34° |
| 2026-05-04 15:09 | 14.39888 | 120.35956 | 5625 ft | 265 kts | 51° |
| 2026-05-04 15:09 | 14.40787 | 120.37582 | 5146 ft | 262 kts | 73° |
| 2026-05-04 15:10 | 14.40564 | 120.41252 | 4196 ft | 260 kts | 105° |
| 2026-05-04 15:10 | 14.40062 | 120.43042 | 3801 ft | 258 kts | 105° |
| 2026-05-04 15:10 | 14.39078 | 120.46579 | 3080 ft | 268 kts | 105° |
| 2026-05-04 15:11 | 14.38532 | 120.48574 | 2963 ft | 311 kts | 105° |
| 2026-05-04 15:11 | 14.37917 | 120.50828 | 2943 ft | 337 kts | 105° |
| 2026-05-04 15:11 | 14.37274 | 120.53181 | 2984 ft | 342 kts | 105° |
| 2026-05-04 15:11 | 14.36630 | 120.55541 | 2993 ft | 341 kts | 105° |
| 2026-05-04 15:12 | 14.35988 | 120.57892 | 3001 ft | 340 kts | 105° |
| 2026-05-04 15:12 | 14.35346 | 120.60246 | 2999 ft | 341 kts | 105° |
| 2026-05-04 15:12 | 14.34705 | 120.62598 | 2998 ft | 341 kts | 105° |
| 2026-05-04 15:12 | 14.34063 | 120.64953 | 2998 ft | 341 kts | 105° |
| 2026-05-04 15:13 | 14.33433 | 120.67318 | 3000 ft | 341 kts | 103° |
| 2026-05-04 15:13 | 14.33325 | 120.69746 | 2997 ft | 341 kts | 81° |
| 2026-05-04 15:13 | 14.34175 | 120.71918 | 3009 ft | 309 kts | 57° |
| 2026-05-04 15:13 | 14.35403 | 120.73545 | 3027 ft | 268 kts | 54° |
| 2026-05-04 15:14 | 14.36373 | 120.75028 | 3020 ft | 233 kts | 62° |
| 2026-05-04 15:14 | 14.37102 | 120.76399 | 3016 ft | 204 kts | 65° |
| 2026-05-04 15:14 | 14.37746 | 120.77644 | 3013 ft | 191 kts | 64° |
| 2026-05-04 15:14 | 14.38316 | 120.78842 | 3005 ft | 188 kts | 68° |
| 2026-05-04 15:15 | 14.39006 | 120.80004 | 3007 ft | 190 kts | 58° |
| 2026-05-04 15:15 | 14.39687 | 120.81161 | 3016 ft | 188 kts | 65° |
| 2026-05-04 15:15 | 14.40302 | 120.82352 | 3001 ft | 189 kts | 64° |
| 2026-05-04 15:16 | 14.41573 | 120.84733 | 2940 ft | 190 kts | 63° |
| 2026-05-04 15:16 | 14.42214 | 120.85918 | 2770 ft | 188 kts | 64° |
| 2026-05-04 15:16 | 14.43482 | 120.88270 | 2462 ft | 187 kts | 63° |
| 2026-05-04 15:17 | 14.44108 | 120.89437 | 2314 ft | 187 kts | 61° |
| 2026-05-04 15:17 | 14.45317 | 120.91684 | 1859 ft | 172 kts | 63° |
| 2026-05-04 15:17 | 14.45887 | 120.92743 | 1638 ft | 163 kts | 63° |
| 2026-05-04 15:18 | 14.46408 | 120.93713 | 1434 ft | 148 kts | 64° |
| 2026-05-04 15:18 | 14.46887 | 120.94607 | 1251 ft | 137 kts | 63° |
| 2026-05-04 15:18 | 14.47330 | 120.95428 | 1083 ft | 128 kts | 64° |
| 2026-05-04 15:19 | 14.48195 | 120.97036 | 760 ft | 130 kts | 63° |
| 2026-05-04 15:19 | 14.48627 | 120.97855 | 579 ft | 134 kts | 63° |
| 2026-05-04 15:19 | 14.49498 | 120.99470 | 271 ft | 130 kts | 62° |
| 2026-05-04 15:20 | 14.49940 | 121.00270 | 114 ft | 129 kts | 64° |
| 2026-05-04 15:20 | 14.50367 | 121.01055 | 84 ft | 118 kts | 62° |
| 2026-05-04 15:20 | 14.50694 | 121.01641 | 64 ft | 70 kts | 60° |
| 2026-05-04 15:20 | 14.50852 | 121.01927 | 66 ft | 24 kts | 60° |
| 2026-05-04 15:21 | 14.50940 | 121.01998 | 68 ft | 6 kts | 352° |
| 2026-05-04 15:21 | 14.50946 | 121.01996 | 68 ft | 2 kts | 349° |
| 2026-05-04 15:21 | 14.51038 | 121.01916 | 66 ft | 13 kts | 315° |
| 2026-05-04 15:22 | 14.51110 | 121.01843 | 65 ft | 14 kts | 315° |
| 2026-05-04 15:22 | 14.51174 | 121.01777 | 64 ft | 9 kts | 315° |
| 2026-05-04 15:22 | 14.51266 | 121.01682 | 72 ft | 11 kts | 315° |
| 2026-05-04 15:23 | 14.51301 | 121.01645 | 65 ft | 8 kts | 315° |
| 2026-05-04 15:23 | 14.51331 | 121.01615 | 65 ft | 5 kts | 315° |
| 2026-05-04 15:23 | 14.51357 | 121.01588 | 65 ft | 7 kts | 318° |
| 2026-05-04 15:23 | 14.51411 | 121.01580 | 71 ft | 9 kts | 21° |
| 2026-05-04 15:24 | 14.51541 | 121.01502 | 67 ft | 14 kts | 315° |
| 2026-05-04 15:24 | 14.51690 | 121.01348 | 64 ft | 16 kts | 315° |
| 2026-05-04 15:25 | 14.51773 | 121.01262 | 64 ft | 17 kts | 315° |
| 2026-05-04 15:25 | 14.51835 | 121.01198 | 72 ft | 9 kts | 315° |
| 2026-05-04 15:25 | 14.51880 | 121.01161 | 64 ft | 6 kts | 345° |
| 2026-05-04 15:26 | 14.51926 | 121.01206 | 64 ft | 5 kts | 45° |
| 2026-05-04 15:26 | 14.51938 | 121.01219 | 66 ft | 2 kts | 45° |
| 2026-05-04 15:26 | 14.51944 | 121.01225 | 67 ft | 0 kts | 45° |
| 2026-05-04 15:30 | 14.51944 | 121.01224 | 67 ft | 0 kts | 45° |
| 2026-05-04 15:34 | 14.51943 | 121.01224 | 67 ft | 0 kts | 45° |